Time;durP1;ratioP1;P1;durP2;ratioP2;P2;SDS_P1;SDS_P2;PMS_P1;PMS_P2;Temp;Humidity;BMP_temperature;BMP_pressure;BME280_temperature;BME280_humidity;BME280_pressure;Samples;Min_cycle;Max_cycle;Signal;HPM_P1;HPM_P2
2022/05/10 00:02:12;;;;;;;4.17;3.50;;;13.20;52.50;;;;;;5246774;28;20281;-49
2022/05/10 00:04:49;;;;;;;6.07;3.50;;;13.20;52.70;;;;;;5246348;28;20198;-48
2022/05/10 00:07:21;;;;;;;3.17;2.93;;;13.20;52.70;;;;;;5246325;28;20511;-49
2022/05/10 00:09:51;;;;;;;3.10;2.90;;;13.10;52.90;;;;;;5248270;28;20454;-47
2022/05/10 00:12:22;;;;;;;5.30;3.07;;;13.10;53.00;;;;;;5246516;28;20468;-48
2022/05/10 00:14:53;;;;;;;3.70;3.27;;;13.10;53.10;;;;;;5247741;28;20182;-48
2022/05/10 00:17:28;;;;;;;7.03;4.23;;;13.10;53.10;;;;;;5248167;28;20208;-48
2022/05/10 00:19:59;;;;;;;4.70;3.23;;;13.00;53.20;;;;;;5216517;28;20186;-48
2022/05/10 00:22:29;;;;;;;7.90;3.30;;;13.00;53.30;;;;;;5243231;28;20421;-49
2022/05/10 00:25:00;;;;;;;4.73;4.00;;;13.00;53.50;;;;;;5245554;28;20574;-49
2022/05/10 00:27:30;;;;;;;3.67;3.37;;;13.00;53.60;;;;;;5248099;28;20577;-48
2022/05/10 00:30:01;;;;;;;7.37;3.50;;;12.90;53.80;;;;;;5248114;28;20270;-47
2022/05/10 00:32:34;;;;;;;3.40;3.10;;;12.90;54.00;;;;;;5224615;28;20245;-50
2022/05/10 00:35:10;;;;;;;5.80;4.00;;;12.90;54.10;;;;;;5242741;28;20428;-51
2022/05/10 00:37:43;;;;;;;4.07;3.70;;;12.80;54.20;;;;;;5246978;28;20765;-48
2022/05/10 00:40:16;;;;;;;5.90;3.63;;;12.80;54.50;;;;;;5248037;28;20420;-48
2022/05/10 00:43:03;;;;;;;14.73;3.87;;;12.80;54.80;;;;;;5242267;28;20480;-52
2022/05/10 00:45:44;;;;;;;9.30;4.03;;;12.70;54.90;;;;;;5235262;28;20479;-49
2022/05/10 00:48:35;;;;;;;4.27;3.17;;;12.70;55.00;;;;;;5245598;28;20436;-48
2022/05/10 00:51:19;;;;;;;5.77;3.50;;;12.60;55.30;;;;;;5228508;28;20830;-49
2022/05/10 00:53:54;;;;;;;5.17;3.50;;;12.60;55.60;;;;;;5245084;28;21021;-50
2022/05/10 00:56:42;;;;;;;3.97;3.50;;;12.60;56.40;;;;;;5245552;28;20436;-47
2022/05/10 00:59:26;;;;;;;5.90;3.40;;;12.50;56.00;;;;;;5231509;28;20460;-48
2022/05/10 01:02:07;;;;;;;5.50;3.03;;;12.50;56.30;;;;;;5246575;28;20428;-48
2022/05/10 01:04:49;;;;;;;4.40;2.90;;;12.50;56.70;;;;;;5247563;28;20508;-48
2022/05/10 01:07:30;;;;;;;5.07;3.33;;;12.50;56.90;;;;;;5248196;28;20904;-48
2022/05/10 01:10:08;;;;;;;5.73;3.30;;;12.50;57.30;;;;;;5244845;28;20440;-48
2022/05/10 01:12:49;;;;;;;7.30;3.67;;;12.40;57.50;;;;;;5246949;28;20526;-49
2022/05/10 01:15:23;;;;;;;3.93;3.23;;;12.40;57.80;;;;;;5240591;28;20436;-47
2022/05/10 01:17:57;;;;;;;5.20;4.50;;;12.40;58.10;;;;;;5247655;28;20489;-49
2022/05/10 01:20:39;;;;;;;4.57;3.50;;;12.40;58.60;;;;;;5245145;28;20483;-48
2022/05/10 01:23:33;;;;;;;4.87;3.17;;;12.30;58.90;;;;;;5242930;28;20490;-50
2022/05/10 01:26:23;;;;;;;4.87;4.30;;;12.30;59.30;;;;;;5216377;28;20432;-48
2022/05/10 01:29:05;;;;;;;4.30;3.33;;;12.20;59.70;;;;;;5250683;28;20444;-50
2022/05/10 01:31:42;;;;;;;4.10;3.70;;;12.20;60.20;;;;;;5239577;28;20480;-47
2022/05/10 01:34:19;;;;;;;5.30;3.20;;;12.20;60.60;;;;;;5246966;28;20447;-48
2022/05/10 01:36:59;;;;;;;6.60;3.50;;;12.10;60.90;;;;;;5246877;28;20477;-48
2022/05/10 01:39:47;;;;;;;8.43;3.90;;;12.10;61.30;;;;;;5247398;28;20436;-49
2022/05/10 01:42:29;;;;;;;4.93;2.93;;;12.10;61.70;;;;;;5248435;28;20509;-50
2022/05/10 01:45:06;;;;;;;8.20;3.80;;;12.10;62.90;;;;;;5244950;28;20961;-49
2022/05/10 01:47:59;;;;;;;5.20;3.47;;;12.10;62.70;;;;;;5234272;28;20425;-53
2022/05/10 01:50:41;;;;;;;3.53;3.23;;;12.10;63.20;;;;;;5263131;28;20437;-49
2022/05/10 01:53:16;;;;;;;5.33;3.13;;;12.00;63.80;;;;;;5244988;28;20443;-49
2022/05/10 01:55:51;;;;;;;5.00;4.00;;;12.00;64.30;;;;;;5252539;28;20424;-46
2022/05/10 01:58:28;;;;;;;6.07;3.60;;;12.00;64.70;;;;;;5252103;28;20946;-51
2022/05/10 02:01:03;;;;;;;5.10;4.07;;;12.00;65.00;;;;;;5250835;28;20450;-49
2022/05/10 02:03:50;;;;;;;5.90;4.33;;;11.90;65.50;;;;;;5249726;28;20463;-50
2022/05/10 02:06:40;;;;;;;5.50;3.60;;;11.90;66.20;;;;;;5238300;28;20440;-48
2022/05/10 02:09:31;;;;;;;3.57;3.27;;;11.90;66.60;;;;;;5251862;28;20444;-50
2022/05/10 02:12:11;;;;;;;5.47;3.07;;;11.90;67.30;;;;;;5240875;28;20563;-49
2022/05/10 02:15:06;;;;;;;7.97;4.03;;;11.80;67.80;;;;;;5251584;28;20460;-51
2022/05/10 02:17:50;;;;;;;5.67;3.33;;;11.80;68.50;;;;;;5249210;28;20444;-48
2022/05/10 02:20:30;;;;;;;4.03;3.63;;;11.80;68.80;;;;;;5248288;28;20429;-49
2022/05/10 02:23:16;;;;;;;7.83;3.77;;;11.80;69.50;;;;;;5249735;28;20452;-58
2022/05/10 02:26:07;;;;;;;5.97;4.20;;;11.80;69.80;;;;;;5248556;28;20424;-47
2022/05/10 02:28:47;;;;;;;6.10;3.13;;;11.80;70.10;;;;;;5265216;28;20435;-49
2022/05/10 02:31:23;;;;;;;6.07;3.87;;;11.70;70.50;;;;;;5232441;28;20490;-48
2022/05/10 02:33:54;;;;;;;8.37;4.40;;;11.70;71.10;;;;;;5258021;28;20813;-50
2022/05/10 02:36:25;;;;;;;3.73;3.43;;;11.70;71.80;;;;;;5249845;28;20490;-48
2022/05/10 02:38:56;;;;;;;4.10;3.70;;;11.60;72.00;;;;;;5238491;28;20432;-48
2022/05/10 02:41:26;;;;;;;3.90;3.60;;;11.60;72.60;;;;;;5249661;28;20193;-48
2022/05/10 02:44:00;;;;;;;4.07;3.73;;;11.60;73.30;;;;;;5248625;28;20219;-51
2022/05/10 02:46:31;;;;;;;6.40;3.90;;;11.50;73.50;;;;;;5249498;28;20186;-48
2022/05/10 02:49:01;;;;;;;9.30;3.83;;;11.60;74.30;;;;;;5237348;28;20939;-48
2022/05/10 02:51:32;;;;;;;7.13;4.07;;;11.60;74.60;;;;;;5244271;28;20237;-48
2022/05/10 02:54:02;;;;;;;6.80;4.20;;;11.50;74.70;;;;;;5246898;28;20234;-49
2022/05/10 02:56:33;;;;;;;8.33;3.77;;;11.50;74.90;;;;;;5249173;28;20646;-49
2022/05/10 02:59:25;;;;;;;3.83;3.53;;;11.40;75.20;;;;;;5248415;28;20182;-48
2022/05/10 03:02:27;;;;;;;9.73;4.37;;;11.50;75.60;;;;;;5246419;28;20183;-47
2022/05/10 03:04:58;;;;;;;7.70;4.30;;;11.40;75.90;;;;;;5244734;28;20431;-49
2022/05/10 03:07:29;;;;;;;8.60;3.77;;;11.40;76.40;;;;;;5250267;28;20428;-49
2022/05/10 03:09:59;;;;;;;12.67;3.33;;;11.40;76.70;;;;;;5250100;28;20519;-48
2022/05/10 03:12:30;;;;;;;4.50;3.67;;;11.30;77.10;;;;;;5249068;28;20708;-49
2022/05/10 03:15:00;;;;;;;4.63;3.37;;;11.30;77.20;;;;;;5248673;28;20185;-48
2022/05/10 03:17:32;;;;;;;3.80;3.47;;;11.30;77.50;;;;;;5249134;28;20260;-48
2022/05/10 03:20:03;;;;;;;6.03;3.63;;;11.30;77.90;;;;;;5249666;28;20185;-48
2022/05/10 03:22:34;;;;;;;6.03;3.63;;;11.30;78.30;;;;;;5253038;28;20436;-49
2022/05/10 03:25:04;;;;;;;4.47;3.57;;;11.20;78.40;;;;;;5234436;22;20497;-52
2022/05/10 03:27:37;;;;;;;8.40;4.50;;;11.20;78.70;;;;;;5224891;28;20205;-53
2022/05/10 03:30:08;;;;;;;4.43;4.03;;;11.30;78.80;;;;;;5222694;28;20168;-52
2022/05/10 03:32:38;;;;;;;5.53;4.17;;;11.30;79.10;;;;;;5213980;28;20468;-51
2022/05/10 03:35:11;;;;;;;7.90;3.90;;;11.30;79.00;;;;;;5228229;28;20452;-52
2022/05/10 03:37:41;;;;;;;4.73;4.10;;;11.20;79.00;;;;;;5216387;28;20175;-52
2022/05/10 03:40:12;;;;;;;10.30;4.20;;;11.30;79.00;;;;;;5226672;28;20804;-55
2022/05/10 03:42:51;;;;;;;7.20;4.10;;;11.30;79.00;;;;;;5222363;28;20677;-52
2022/05/10 03:45:23;;;;;;;5.50;3.83;;;11.40;78.90;;;;;;5226679;28;20471;-53
2022/05/10 03:47:55;;;;;;;15.33;4.70;;;11.40;78.90;;;;;;5224690;28;20508;-52
2022/05/10 03:50:25;;;;;;;7.10;4.23;;;11.40;78.70;;;;;;5225242;28;20468;-55
2022/05/10 03:52:56;;;;;;;8.70;4.77;;;11.50;78.50;;;;;;5215494;28;20902;-52
2022/05/10 03:55:28;;;;;;;6.50;3.50;;;11.50;78.00;;;;;;5215654;28;20183;-51
2022/05/10 03:57:59;;;;;;;8.80;4.23;;;11.60;78.10;;;;;;5228193;28;20175;-52
2022/05/10 04:00:30;;;;;;;6.57;3.80;;;11.60;77.60;;;;;;5217361;28;20433;-50
2022/05/10 04:03:01;;;;;;;10.33;4.67;;;11.60;77.50;;;;;;5223345;28;20233;-52
2022/05/10 04:05:31;;;;;;;6.43;4.30;;;11.70;77.30;;;;;;5238006;28;20428;-51
2022/05/10 04:08:02;;;;;;;6.10;4.33;;;11.70;76.70;;;;;;5220016;28;20634;-51
2022/05/10 04:10:32;;;;;;;4.70;3.90;;;11.80;76.60;;;;;;5214277;28;20186;-51
2022/05/10 04:13:03;;;;;;;5.57;4.23;;;11.80;76.20;;;;;;5226750;28;20558;-52
2022/05/10 04:15:34;;;;;;;5.67;3.70;;;11.90;75.90;;;;;;5219605;28;20229;-53
2022/05/10 04:18:04;;;;;;;4.90;3.97;;;12.00;75.40;;;;;;5210895;28;20517;-52
2022/05/10 04:20:35;;;;;;;5.00;4.03;;;12.00;75.30;;;;;;5222490;28;20202;-51
2022/05/10 04:23:05;;;;;;;14.53;5.17;;;12.00;75.00;;;;;;5226285;28;20179;-52
2022/05/10 04:25:36;;;;;;;9.70;3.70;;;12.00;74.70;;;;;;5219627;28;20190;-51
2022/05/10 04:28:07;;;;;;;5.10;4.50;;;12.00;74.90;;;;;;5218070;28;20286;-52
2022/05/10 04:30:37;;;;;;;5.40;3.90;;;12.00;75.10;;;;;;5211189;28;20180;-53
2022/05/10 04:33:08;;;;;;;11.27;3.77;;;12.10;74.50;;;;;;5221894;28;20207;-51
2022/05/10 04:35:38;;;;;;;4.23;3.93;;;12.20;74.40;;;;;;5220983;28;20253;-51
2022/05/10 04:38:09;;;;;;;5.40;3.83;;;12.30;73.70;;;;;;5227716;28;20270;-51
2022/05/10 04:43:29;;;;;;;4.73;4.27;;;12.40;73.00;;;;;;5223503;28;21973;-51
2022/05/10 04:45:59;;;;;;;8.20;4.20;;;12.60;72.20;;;;;;5224158;28;20433;-51
2022/05/10 04:48:30;;;;;;;6.93;4.30;;;12.80;71.50;;;;;;5227674;28;20646;-52
2022/05/10 04:51:02;;;;;;;8.43;4.33;;;13.20;69.60;;;;;;5221987;28;20640;-52
2022/05/10 04:53:34;;;;;;;6.00;4.53;;;13.70;66.30;;;;;;5208683;28;20217;-53
2022/05/10 04:56:05;;;;;;;12.33;4.00;;;14.00;64.40;;;;;;5221463;28;20481;-52
2022/05/10 04:58:35;;;;;;;6.70;4.70;;;14.40;62.20;;;;;;5219283;28;21045;-51
2022/05/10 05:01:09;;;;;;;5.30;3.70;;;14.80;60.10;;;;;;5217759;28;20525;-52
2022/05/10 05:03:48;;;;;;;5.00;4.30;;;15.30;58.10;;;;;;5215440;28;20203;-53
2022/05/10 05:06:18;;;;;;;5.03;3.73;;;16.10;55.60;;;;;;5222580;28;20998;-52
2022/05/10 05:08:49;;;;;;;5.13;4.63;;;16.90;54.10;;;;;;5223932;28;20441;-51
2022/05/10 05:11:19;;;;;;;4.50;3.97;;;17.90;50.90;;;;;;5217715;28;20198;-54
2022/05/10 05:13:50;;;;;;;7.93;4.57;;;18.60;48.30;;;;;;5222363;28;20209;-56
2022/05/10 05:16:21;;;;;;;8.07;4.23;;;19.30;46.40;;;;;;5212378;28;20646;-54
2022/05/10 05:18:51;;;;;;;5.27;4.70;;;21.00;44.00;;;;;;5230721;28;20187;-52
2022/05/10 05:21:22;;;;;;;6.63;3.73;;;22.80;39.50;;;;;;5228329;28;20194;-52
2022/05/10 05:23:52;;;;;;;6.90;4.13;;;23.80;37.50;;;;;;5228984;28;20264;-55
2022/05/10 05:26:24;;;;;;;6.13;3.90;;;25.00;35.10;;;;;;5228671;28;20187;-53
2022/05/10 05:28:55;;;;;;;6.60;3.60;;;25.90;33.40;;;;;;5234591;28;20179;-55
2022/05/10 05:31:26;;;;;;;6.07;4.30;;;26.80;32.30;;;;;;5236376;28;20522;-55
2022/05/10 05:33:57;;;;;;;8.90;5.00;;;27.40;30.20;;;;;;5236548;28;20306;-52
2022/05/10 05:36:27;;;;;;;6.33;4.60;;;26.70;30.50;;;;;;5228722;28;20441;-53
2022/05/10 05:38:58;;;;;;;5.47;4.30;;;25.90;31.10;;;;;;5232675;28;20217;-55
2022/05/10 05:41:28;;;;;;;6.37;4.10;;;25.50;32.20;;;;;;5232994;28;20615;-54
2022/05/10 05:43:59;;;;;;;6.97;4.07;;;25.60;32.00;;;;;;5224520;28;20287;-53
2022/05/10 05:46:29;;;;;;;10.83;4.37;;;25.30;32.10;;;;;;5232228;28;20206;-53
2022/05/10 05:49:01;;;;;;;6.70;3.80;;;25.90;32.50;;;;;;5231967;28;20182;-54
2022/05/10 05:51:32;;;;;;;17.37;4.40;;;26.80;31.30;;;;;;5232825;28;20195;-54
2022/05/10 05:54:08;;;;;;;16.47;4.07;;;27.50;30.00;;;;;;5231303;28;21028;-53
2022/05/10 05:56:39;;;;;;;8.57;4.57;;;28.40;29.60;;;;;;5232736;28;20175;-55
2022/05/10 05:59:09;;;;;;;9.00;4.03;;;28.50;29.10;;;;;;5230455;28;20416;-53
2022/05/10 06:01:40;;;;;;;4.23;3.70;;;29.50;28.30;;;;;;5229710;28;20193;-53
2022/05/10 06:04:10;;;;;;;4.33;3.77;;;29.60;28.40;;;;;;5223425;28;20203;-54
2022/05/10 06:06:41;;;;;;;6.57;4.20;;;29.50;27.70;;;;;;5245075;28;20223;-54
2022/05/10 06:09:11;;;;;;;6.83;4.00;;;29.90;27.80;;;;;;5231711;28;20187;-54
2022/05/10 06:11:42;;;;;;;7.07;4.00;;;30.20;26.90;;;;;;5233094;28;20324;-55
2022/05/10 06:14:12;;;;;;;4.80;3.40;;;30.50;27.20;;;;;;5234788;28;20216;-53
2022/05/10 06:16:43;;;;;;;7.40;4.50;;;31.40;26.60;;;;;;5225712;28;20186;-56
2022/05/10 06:19:14;;;;;;;7.00;3.87;;;32.40;25.90;;;;;;5234925;28;20194;-56
2022/05/10 06:21:45;;;;;;;16.67;4.00;;;32.30;25.50;;;;;;5235324;28;20447;-54
2022/05/10 06:24:16;;;;;;;5.97;4.10;;;32.40;25.20;;;;;;5226321;28;20698;-52
2022/05/10 06:26:46;;;;;;;9.80;4.13;;;32.50;25.20;;;;;;5228350;28;20167;-54
2022/05/10 06:29:17;;;;;;;8.37;4.10;;;33.10;25.00;;;;;;5223608;28;20190;-55
2022/05/10 06:31:48;;;;;;;6.50;4.27;;;33.30;24.70;;;;;;5223886;28;20255;-53
2022/05/10 06:34:19;;;;;;;15.00;4.77;;;32.80;24.70;;;;;;5219793;28;20708;-54
2022/05/10 06:36:49;;;;;;;4.10;3.60;;;31.90;25.30;;;;;;5225913;28;20179;-55
2022/05/10 06:39:20;;;;;;;6.00;3.27;;;31.40;25.90;;;;;;5227625;28;20219;-55
2022/05/10 06:41:50;;;;;;;5.53;4.40;;;31.60;26.20;;;;;;5225875;28;20188;-56
2022/05/10 06:44:21;;;;;;;9.00;3.90;;;32.10;25.70;;;;;;5224551;28;20233;-54
2022/05/10 06:46:51;;;;;;;8.90;3.60;;;32.60;25.10;;;;;;5227825;28;20186;-55
2022/05/10 06:49:23;;;;;;;5.80;3.60;;;33.10;24.90;;;;;;5229617;28;20600;-54
2022/05/10 06:51:53;;;;;;;9.47;3.87;;;33.80;24.30;;;;;;5213458;28;20712;-54
2022/05/10 06:54:24;;;;;;;11.00;4.33;;;34.00;24.00;;;;;;5229408;28;20310;-55
2022/05/10 06:56:54;;;;;;;7.70;3.70;;;33.80;23.90;;;;;;5233874;28;20174;-53
2022/05/10 06:59:25;;;;;;;11.70;4.20;;;33.40;24.30;;;;;;5234804;28;20202;-54
2022/05/10 07:01:55;;;;;;;7.83;4.27;;;32.70;24.70;;;;;;5234244;28;20174;-55
2022/05/10 07:04:26;;;;;;;9.53;3.30;;;31.70;25.50;;;;;;5223884;28;20234;-52
2022/05/10 07:06:56;;;;;;;29.63;3.80;;;30.90;26.70;;;;;;5228048;28;20301;-54
2022/05/10 07:09:27;;;;;;;11.40;3.97;;;30.40;26.70;;;;;;5229898;28;20592;-53
2022/05/10 07:11:57;;;;;;;9.80;4.20;;;29.80;27.70;;;;;;5231430;28;20268;-53
2022/05/10 07:14:28;;;;;;;10.80;4.30;;;30.30;27.40;;;;;;5228041;28;20280;-55
2022/05/10 07:16:58;;;;;;;16.23;5.13;;;30.70;26.80;;;;;;5237021;28;20546;-55
2022/05/10 07:19:29;;;;;;;6.37;3.30;;;31.40;26.30;;;;;;5235269;28;20210;-53
2022/05/10 07:21:59;;;;;;;15.40;3.70;;;32.30;26.00;;;;;;5220667;28;20202;-53
2022/05/10 07:24:30;;;;;;;6.50;3.43;;;33.20;24.90;;;;;;5221290;28;20222;-54
2022/05/10 07:27:00;;;;;;;4.30;3.90;;;34.10;24.40;;;;;;5220954;28;20503;-56
2022/05/10 07:29:31;;;;;;;15.93;3.73;;;34.90;23.50;;;;;;5216410;28;20195;-54
2022/05/10 07:32:02;;;;;;;5.63;3.40;;;35.20;23.60;;;;;;5222997;28;20209;-55
2022/05/10 07:34:33;;;;;;;6.57;4.27;;;35.70;23.10;;;;;;5212935;28;20536;-56
2022/05/10 07:37:03;;;;;;;5.17;3.47;;;35.40;23.40;;;;;;5217739;28;20193;-55
2022/05/10 07:39:35;;;;;;;12.77;4.05;;;35.70;23.20;;;;;;5215977;28;20183;-55
2022/05/10 07:42:06;;;;;;;7.70;3.90;;;35.90;22.50;;;;;;5216099;28;20210;-54
2022/05/10 07:44:36;;;;;;;7.40;3.92;;;35.40;22.90;;;;;;5220949;28;20248;-54
2022/05/10 07:47:09;;;;;;;3.90;3.13;;;35.70;22.60;;;;;;5212028;28;20540;-58
2022/05/10 07:49:39;;;;;;;9.57;4.10;;;35.90;22.80;;;;;;5215945;28;20559;-54
2022/05/10 07:52:10;;;;;;;6.35;3.78;;;36.20;22.30;;;;;;5221647;28;20212;-54
2022/05/10 07:54:40;;;;;;;7.60;3.90;;;35.80;22.30;;;;;;5221776;28;20194;-56
2022/05/10 07:57:11;;;;;;;4.57;2.90;;;35.00;23.00;;;;;;5215612;28;20198;-56
2022/05/10 07:59:41;;;;;;;9.13;3.65;;;34.90;23.20;;;;;;5222111;28;20189;-57
2022/05/10 08:02:12;;;;;;;4.43;3.58;;;35.00;23.00;;;;;;5220469;28;20218;-54
2022/05/10 08:04:42;;;;;;;7.97;3.50;;;34.80;23.20;;;;;;5216952;28;20264;-58
2022/05/10 08:07:13;;;;;;;6.50;3.57;;;34.00;23.60;;;;;;5215865;28;20706;-60
2022/05/10 08:09:43;;;;;;;8.23;4.10;;;33.80;24.00;;;;;;5213483;28;20186;-55
2022/05/10 08:12:14;;;;;;;8.17;3.60;;;33.60;24.30;;;;;;5221287;28;20563;-53
2022/05/10 08:14:44;;;;;;;7.40;2.93;;;33.60;23.80;;;;;;5215328;28;20210;-55
2022/05/10 08:17:15;;;;;;;11.70;3.70;;;34.00;23.70;;;;;;5210972;28;20232;-54
2022/05/10 08:19:45;;;;;;;17.43;4.10;;;34.10;23.60;;;;;;5214530;28;20270;-60
2022/05/10 08:22:17;;;;;;;6.77;3.63;;;34.30;23.80;;;;;;5217282;28;20198;-54
2022/05/10 08:24:47;;;;;;;5.50;3.00;;;33.90;23.90;;;;;;5221042;28;20530;-57
2022/05/10 08:27:18;;;;;;;9.10;2.80;;;33.40;23.60;;;;;;5223056;28;20277;-56
2022/05/10 08:29:48;;;;;;;3.73;3.27;;;32.90;24.20;;;;;;5223849;28;20276;-55
2022/05/10 08:32:19;;;;;;;4.40;3.30;;;32.70;24.20;;;;;;5224496;28;20210;-54
2022/05/10 08:34:50;;;;;;;5.57;2.63;;;33.20;24.40;;;;;;5229755;28;20213;-54
2022/05/10 08:37:20;;;;;;;12.20;3.30;;;32.70;24.60;;;;;;5225067;28;20648;-55
2022/05/10 08:39:51;;;;;;;4.83;2.43;;;32.30;24.80;;;;;;5232182;28;20174;-59
2022/05/10 08:42:28;;;;;;;3.70;3.13;;;31.80;25.00;;;;;;5237031;28;20191;-57
2022/05/10 08:45:04;;;;;;;4.00;3.20;;;31.50;25.60;;;;;;5219158;28;20693;-56
2022/05/10 08:47:36;;;;;;;11.97;3.47;;;31.40;25.50;;;;;;5221138;28;20519;-53
2022/05/10 08:50:10;;;;;;;3.40;2.40;;;31.10;25.70;;;;;;5225346;28;20444;-53
2022/05/10 08:52:44;;;;;;;4.20;2.57;;;30.30;26.30;;;;;;5225192;28;20466;-55
2022/05/10 08:55:21;;;;;;;7.50;3.53;;;29.40;26.90;;;;;;5233577;28;20448;-56
2022/05/10 08:58:04;;;;;;;12.47;3.00;;;29.00;27.40;;;;;;5218091;28;20864;-55
2022/05/10 09:00:53;;;;;;;6.43;3.00;;;28.80;27.60;;;;;;5221280;28;20492;-53
2022/05/10 09:03:26;;;;;;;6.90;2.50;;;27.80;28.30;;;;;;5223737;28;20671;-55
2022/05/10 09:06:02;;;;;;;26.20;3.40;;;27.00;29.20;;;;;;5221296;28;20528;-54
2022/05/10 09:08:49;;;;;;;3.17;2.00;;;26.60;30.00;;;;;;5216211;28;21011;-55
2022/05/10 09:11:21;;;;;;;7.50;2.57;;;26.40;29.80;;;;;;5225535;28;20456;-54
2022/05/10 09:13:54;;;;;;;11.33;2.70;;;26.40;30.00;;;;;;5225983;28;20972;-55
2022/05/10 09:16:24;;;;;;;6.57;2.93;;;26.50;30.00;;;;;;5221994;28;20422;-52
2022/05/10 09:18:55;;;;;;;3.40;2.67;;;26.50;30.20;;;;;;5217740;28;20940;-53
2022/05/10 09:21:32;;;;;;;3.13;2.57;;;26.60;30.20;;;;;;5220052;28;20195;-54
2022/05/10 09:24:25;;;;;;;4.70;2.80;;;26.60;29.70;;;;;;5220150;28;20207;-57
2022/05/10 09:27:09;;;;;;;7.73;2.63;;;26.60;29.80;;;;;;5211857;28;20495;-55
2022/05/10 09:29:40;;;;;;;6.63;2.63;;;26.30;29.70;;;;;;5221446;28;20433;-55
2022/05/10 09:35:11;;;;;;;2.00;1.90;;;25.70;31.00;;;;;;5215439;28;20440;-54
2022/05/10 09:37:47;;;;;;;9.03;2.63;;;25.80;30.30;;;;;;5217767;28;20950;-55
2022/05/10 09:40:19;;;;;;;7.03;2.90;;;25.90;30.70;;;;;;5219863;28;20487;-57
2022/05/10 09:42:52;;;;;;;2.90;2.67;;;25.80;30.80;;;;;;5219115;28;20433;-57
2022/05/10 09:45:25;;;;;;;2.47;2.33;;;25.70;30.20;;;;;;5220471;28;20466;-55
2022/05/10 09:48:08;;;;;;;10.30;2.93;;;25.50;29.70;;;;;;5218369;28;20444;-55
2022/05/10 09:50:49;;;;;;;8.33;2.57;;;25.20;30.50;;;;;;5235358;28;20549;-54
2022/05/10 09:53:31;;;;;;;6.50;2.70;;;25.10;31.30;;;;;;5219795;28;20521;-57
2022/05/10 09:56:29;;;;;;;4.20;2.10;;;25.10;31.70;;;;;;5217848;28;20475;-55
2022/05/10 09:59:46;;;;;;;2.33;2.13;;;25.20;31.80;;;;;;5219764;28;20434;-56
2022/05/10 10:02:34;;;;;;;10.30;3.10;;;25.40;31.80;;;;;;5215924;28;20500;-55
2022/05/10 10:05:22;;;;;;;7.40;3.10;;;25.40;32.00;;;;;;5218595;28;20503;-56
2022/05/10 10:07:55;;;;;;;2.57;2.37;;;25.30;31.80;;;;;;5216704;28;20448;-58
2022/05/10 10:10:34;;;;;;;6.90;2.37;;;25.30;32.20;;;;;;5217490;28;20546;-56
2022/05/10 10:13:26;;;;;;;4.50;2.43;;;25.40;32.50;;;;;;5216966;28;20903;-58
2022/05/10 10:15:57;;;;;;;2.23;2.23;;;25.40;32.80;;;;;;5224702;28;20556;-55
2022/05/10 10:18:47;;;;;;;3.27;2.10;;;25.50;32.10;;;;;;5224898;28;20480;-57
2022/05/10 10:21:33;;;;;;;4.97;3.27;;;25.30;32.40;;;;;;5222048;28;20189;-56
2022/05/10 10:24:04;;;;;;;4.80;2.10;;;25.30;33.00;;;;;;5224588;28;20475;-56
2022/05/10 10:26:53;;;;;;;3.60;2.37;;;25.20;32.80;;;;;;5242647;28;20445;-57
2022/05/10 10:29:39;;;;;;;2.43;2.23;;;25.20;33.00;;;;;;5221332;28;20198;-57
2022/05/10 10:32:20;;;;;;;3.43;2.10;;;25.20;33.30;;;;;;5220086;28;20722;-57
2022/05/10 10:34:57;;;;;;;2.03;1.90;;;25.40;33.70;;;;;;5216477;28;20457;-57
2022/05/10 10:37:54;;;;;;;3.47;2.70;;;25.60;33.40;;;;;;5229002;28;20433;-57
2022/05/10 10:40:41;;;;;;;4.20;2.50;;;25.90;33.30;;;;;;5214467;28;20421;-56
2022/05/10 10:43:24;;;;;;;3.23;2.60;;;25.90;32.70;;;;;;5217468;28;20527;-57
2022/05/10 10:46:12;;;;;;;10.93;2.73;;;25.90;33.20;;;;;;5221636;28;20461;-54
2022/05/10 10:48:58;;;;;;;2.57;2.40;;;25.90;32.80;;;;;;5217204;28;20453;-55
2022/05/10 10:51:32;;;;;;;14.70;2.50;;;25.60;33.20;;;;;;5218033;28;20598;-57
2022/05/10 10:54:03;;;;;;;5.33;2.70;;;25.70;33.50;;;;;;5219669;28;20452;-57
2022/05/10 10:57:02;;;;;;;4.10;2.67;;;26.00;32.90;;;;;;5220199;28;20462;-57
2022/05/10 10:59:52;;;;;;;2.87;2.63;;;25.90;33.40;;;;;;5218082;28;20434;-57
2022/05/10 11:02:53;;;;;;;5.70;2.20;;;26.10;32.70;;;;;;5221052;28;20746;-57
2022/05/10 11:05:36;;;;;;;3.80;2.30;;;26.30;33.40;;;;;;5210393;28;20436;-56
2022/05/10 11:08:36;;;;;;;3.07;2.50;;;26.30;32.80;;;;;;5217726;28;20972;-57
2022/05/10 11:11:29;;;;;;;2.10;2.00;;;26.60;32.10;;;;;;5224631;28;20564;-56
2022/05/10 11:14:19;;;;;;;3.97;2.50;;;26.60;32.60;;;;;;5223553;28;20524;-59
2022/05/10 11:17:24;;;;;;;3.07;2.77;;;26.60;32.70;;;;;;5217065;28;20930;-59
2022/05/10 11:20:33;;;;;;;10.53;3.03;;;26.70;32.90;;;;;;5222464;28;20441;-57
2022/05/10 11:23:06;;;;;;;3.23;2.60;;;26.80;32.10;;;;;;5208120;28;20429;-55
2022/05/10 11:25:54;;;;;;;2.83;2.40;;;26.60;32.20;;;;;;5220154;28;20437;-56
2022/05/10 11:28:37;;;;;;;9.27;3.27;;;26.60;33.00;;;;;;5220332;28;20437;-56
2022/05/10 11:31:16;;;;;;;1.93;1.90;;;26.70;32.90;;;;;;5217699;28;20511;-57
2022/05/10 11:33:58;;;;;;;3.33;2.53;;;26.80;32.90;;;;;;5210550;28;20484;-57
2022/05/10 11:36:41;;;;;;;2.10;2.00;;;27.00;32.60;;;;;;5222820;28;20430;-55
2022/05/10 11:39:28;;;;;;;2.20;1.63;;;27.00;32.20;;;;;;5221000;28;20468;-56
2022/05/10 11:42:23;;;;;;;3.20;2.23;;;26.90;32.00;;;;;;5222700;28;20543;-55
2022/05/10 11:45:19;;;;;;;4.63;2.30;;;27.00;32.50;;;;;;5220705;28;20453;-56
2022/05/10 11:48:21;;;;;;;3.13;2.67;;;27.10;32.40;;;;;;5226745;28;20797;-56
2022/05/10 11:54:00;;;;;;;2.27;2.07;;;27.20;32.40;;;;;;5220645;28;20955;-57
2022/05/10 11:56:37;;;;;;;7.17;2.40;;;27.30;32.60;;;;;;5218033;28;20465;-56
2022/05/10 11:59:23;;;;;;;4.00;3.10;;;27.20;32.40;;;;;;5216518;28;20422;-57
2022/05/10 12:01:55;;;;;;;5.20;2.90;;;27.30;32.70;;;;;;5222830;28;20963;-54
2022/05/10 12:04:31;;;;;;;2.50;2.30;;;27.40;32.40;;;;;;5219230;28;20457;-56
2022/05/10 12:07:20;;;;;;;5.70;3.10;;;27.50;32.10;;;;;;5213177;28;20441;-55
2022/05/10 12:10:33;;;;;;;4.63;2.23;;;27.50;32.10;;;;;;5220137;28;20922;-55
2022/05/10 12:13:08;;;;;;;6.00;3.03;;;27.60;31.50;;;;;;5220519;28;20527;-55
2022/05/10 12:21:49;;;;;;;3.13;2.53;;;27.80;31.90;;;;;;5220090;28;20467;-57
2022/05/10 12:24:19;;;;;;;12.57;3.50;;;27.90;31.90;;;;;;5220728;28;20461;-57
2022/05/10 12:26:59;;;;;;;3.70;2.27;;;27.90;31.30;;;;;;5216154;28;20495;-55
2022/05/10 12:29:39;;;;;;;2.10;2.00;;;27.90;31.50;;;;;;5223021;28;20198;-54
2022/05/10 12:32:24;;;;;;;2.50;2.30;;;28.00;30.90;;;;;;5220944;28;21031;-55
2022/05/10 12:35:00;;;;;;;2.63;2.37;;;28.20;30.40;;;;;;5220391;28;20572;-57
2022/05/10 12:37:49;;;;;;;2.10;1.80;;;28.30;29.90;;;;;;5214856;28;20432;-55
2022/05/10 12:40:46;;;;;;;6.37;3.00;;;28.10;30.10;;;;;;5214250;28;20512;-57
2022/05/10 12:43:34;;;;;;;3.10;2.60;;;27.70;30.60;;;;;;5221392;28;20529;-54
2022/05/10 12:46:28;;;;;;;3.67;2.30;;;27.60;30.70;;;;;;5225139;28;20881;-56
2022/05/10 12:49:19;;;;;;;6.97;3.07;;;27.50;31.00;;;;;;5221342;28;20464;-56
2022/05/10 12:52:24;;;;;;;3.20;3.00;;;27.70;31.40;;;;;;5220428;28;20935;-58
2022/05/10 12:55:03;;;;;;;3.43;2.67;;;28.00;30.90;;;;;;5193845;28;20463;-58
2022/05/10 12:57:51;;;;;;;6.90;3.20;;;28.20;30.90;;;;;;5218702;28;20964;-57
2022/05/10 13:00:25;;;;;;;2.57;2.37;;;28.50;30.30;;;;;;5220963;28;20433;-58
2022/05/10 13:03:09;;;;;;;5.90;2.30;;;28.70;30.40;;;;;;5211189;28;20430;-56
2022/05/10 13:05:50;;;;;;;7.30;2.90;;;29.00;29.70;;;;;;5219098;28;20437;-57
2022/05/10 13:08:50;;;;;;;2.57;1.90;;;29.10;29.50;;;;;;5220260;28;20493;-57
2022/05/10 13:11:24;;;;;;;10.03;2.60;;;29.20;29.80;;;;;;5220149;28;20453;-58
2022/05/10 13:13:59;;;;;;;2.67;2.43;;;29.20;29.80;;;;;;5220079;28;20460;-58
2022/05/10 13:16:29;;;;;;;2.80;2.63;;;29.10;29.80;;;;;;5212616;28;20447;-55
2022/05/10 13:19:02;;;;;;;4.00;3.70;;;29.20;29.80;;;;;;5216272;28;20433;-56
2022/05/10 13:21:34;;;;;;;1.83;1.83;;;28.90;29.50;;;;;;5215484;28;20190;-57
2022/05/10 13:24:12;;;;;;;2.60;2.50;;;28.50;29.90;;;;;;5221212;28;20461;-58
2022/05/10 13:27:00;;;;;;;2.03;1.93;;;28.40;29.50;;;;;;5219659;28;20556;-56
2022/05/10 13:29:41;;;;;;;4.57;2.67;;;28.30;29.60;;;;;;5222688;28;20465;-59
2022/05/10 13:32:26;;;;;;;4.10;2.70;;;28.20;29.70;;;;;;5215115;28;21021;-57
2022/05/10 13:35:20;;;;;;;4.40;2.40;;;28.10;30.50;;;;;;5216720;28;20454;-57
2022/05/10 13:38:05;;;;;;;4.83;3.37;;;27.90;30.20;;;;;;5213313;28;20433;-56
2022/05/10 13:40:47;;;;;;;3.87;2.67;;;27.80;30.60;;;;;;5217506;28;20430;-56
2022/05/10 13:43:46;;;;;;;4.00;2.17;;;27.80;30.40;;;;;;5219913;28;21003;-57
2022/05/10 13:46:20;;;;;;;4.20;2.90;;;27.80;30.50;;;;;;5213247;28;20440;-58
2022/05/10 13:49:01;;;;;;;5.83;3.03;;;28.00;30.70;;;;;;5221124;28;20417;-56
2022/05/10 13:51:57;;;;;;;4.70;2.50;;;28.10;30.60;;;;;;5225306;28;20806;-55